sensor_id;sensor_type;location;lat;lon;timestamp;pressure;altitude;pressure_sealevel;temperature;humidity
12475;BME280;6302;42.624;23.334;2023-05-24T00:01:02;93116.44;;;13.75;100.00
12475;BME280;6302;42.624;23.334;2023-05-24T00:03:31;93118.84;;;13.69;100.00
12475;BME280;6302;42.624;23.334;2023-05-24T00:05:59;93111.69;;;13.66;100.00
12475;BME280;6302;42.624;23.334;2023-05-24T00:08:26;93114.44;;;13.62;100.00
12475;BME280;6302;42.624;23.334;2023-05-24T00:10:52;93113.69;;;13.62;100.00
12475;BME280;6302;42.624;23.334;2023-05-24T00:13:21;93112.88;;;13.65;100.00
12475;BME280;6302;42.624;23.334;2023-05-24T00:15:47;93112.88;;;13.65;100.00
12475;BME280;6302;42.624;23.334;2023-05-24T00:18:14;93112.13;;;13.64;100.00
12475;BME280;6302;42.624;23.334;2023-05-24T00:20:42;93123.91;;;13.63;100.00
12475;BME280;6302;42.624;23.334;2023-05-24T00:23:08;93120.59;;;13.59;100.00
12475;BME280;6302;42.624;23.334;2023-05-24T00:25:35;93116.03;;;13.60;100.00
12475;BME280;6302;42.624;23.334;2023-05-24T00:28:02;93120.16;;;13.61;100.00
12475;BME280;6302;42.624;23.334;2023-05-24T00:30:30;93114.84;;;13.61;100.00
12475;BME280;6302;42.624;23.334;2023-05-24T00:32:57;93112.50;;;13.63;100.00
12475;BME280;6302;42.624;23.334;2023-05-24T00:35:24;93117.00;;;13.66;100.00
12475;BME280;6302;42.624;23.334;2023-05-24T00:37:50;93122.06;;;13.60;100.00
12475;BME280;6302;42.624;23.334;2023-05-24T00:40:17;93108.44;;;13.58;100.00
12475;BME280;6302;42.624;23.334;2023-05-24T00:42:46;93101.78;;;13.50;100.00
12475;BME280;6302;42.624;23.334;2023-05-24T00:45:13;93108.25;;;13.49;100.00
12475;BME280;6302;42.624;23.334;2023-05-24T00:47:41;93109.41;;;13.48;100.00
12475;BME280;6302;42.624;23.334;2023-05-24T00:50:09;93108.75;;;13.44;100.00
12475;BME280;6302;42.624;23.334;2023-05-24T00:52:37;93103.91;;;13.39;100.00
12475;BME280;6302;42.624;23.334;2023-05-24T00:55:06;93111.25;;;13.35;100.00
12475;BME280;6302;42.624;23.334;2023-05-24T00:57:34;93107.56;;;13.29;100.00
12475;BME280;6302;42.624;23.334;2023-05-24T01:00:02;93111.78;;;13.27;100.00
12475;BME280;6302;42.624;23.334;2023-05-24T01:02:29;93104.72;;;13.20;100.00
12475;BME280;6302;42.624;23.334;2023-05-24T01:04:58;93112.44;;;13.15;100.00
12475;BME280;6302;42.624;23.334;2023-05-24T01:07:30;93106.00;;;13.12;100.00
12475;BME280;6302;42.624;23.334;2023-05-24T01:10:06;93110.66;;;13.08;100.00
12475;BME280;6302;42.624;23.334;2023-05-24T01:12:45;93110.31;;;13.06;100.00
12475;BME280;6302;42.624;23.334;2023-05-24T01:15:21;93113.03;;;13.02;100.00
12475;BME280;6302;42.624;23.334;2023-05-24T01:17:53;93110.44;;;12.99;100.00
12475;BME280;6302;42.624;23.334;2023-05-24T01:20:28;93117.41;;;12.93;100.00
12475;BME280;6302;42.624;23.334;2023-05-24T01:23:06;93120.88;;;12.90;100.00
12475;BME280;6302;42.624;23.334;2023-05-24T01:25:47;93108.53;;;12.80;100.00
12475;BME280;6302;42.624;23.334;2023-05-24T01:28:17;93121.50;;;12.78;100.00
12475;BME280;6302;42.624;23.334;2023-05-24T01:30:44;93119.63;;;12.75;100.00
12475;BME280;6302;42.624;23.334;2023-05-24T01:33:11;93118.63;;;12.69;100.00
12475;BME280;6302;42.624;23.334;2023-05-24T01:35:38;93120.13;;;12.70;100.00
12475;BME280;6302;42.624;23.334;2023-05-24T01:38:07;93130.06;;;12.66;100.00
12475;BME280;6302;42.624;23.334;2023-05-24T01:40:34;93132.75;;;12.66;100.00
12475;BME280;6302;42.624;23.334;2023-05-24T01:43:06;93132.31;;;12.67;100.00
12475;BME280;6302;42.624;23.334;2023-05-24T01:45:40;93102.38;;;12.44;100.00
12475;BME280;6302;42.624;23.334;2023-05-24T01:48:15;93131.22;;;12.65;100.00
12475;BME280;6302;42.624;23.334;2023-05-24T01:50:48;93127.56;;;12.59;100.00
12475;BME280;6302;42.624;23.334;2023-05-24T01:53:19;93132.16;;;12.55;100.00
12475;BME280;6302;42.624;23.334;2023-05-24T01:55:47;93124.94;;;12.55;100.00
12475;BME280;6302;42.624;23.334;2023-05-24T01:58:16;93125.84;;;12.49;100.00
12475;BME280;6302;42.624;23.334;2023-05-24T02:00:46;93116.75;;;12.46;100.00
12475;BME280;6302;42.624;23.334;2023-05-24T02:03:13;93109.59;;;12.43;100.00
12475;BME280;6302;42.624;23.334;2023-05-24T02:05:41;93110.81;;;12.38;100.00
12475;BME280;6302;42.624;23.334;2023-05-24T02:08:08;93113.16;;;12.36;100.00
12475;BME280;6302;42.624;23.334;2023-05-24T02:10:35;93113.94;;;12.33;100.00
12475;BME280;6302;42.624;23.334;2023-05-24T02:13:04;93110.19;;;12.31;100.00
12475;BME280;6302;42.624;23.334;2023-05-24T02:15:31;93110.25;;;12.27;100.00
12475;BME280;6302;42.624;23.334;2023-05-24T02:18:01;93112.97;;;12.24;100.00
12475;BME280;6302;42.624;23.334;2023-05-24T02:20:28;93104.38;;;12.16;100.00
12475;BME280;6302;42.624;23.334;2023-05-24T02:22:55;93120.25;;;12.20;100.00
12475;BME280;6302;42.624;23.334;2023-05-24T02:25:22;93113.50;;;12.15;100.00
12475;BME280;6302;42.624;23.334;2023-05-24T02:27:49;93111.66;;;12.12;100.00
12475;BME280;6302;42.624;23.334;2023-05-24T02:30:16;93104.50;;;12.09;100.00
12475;BME280;6302;42.624;23.334;2023-05-24T02:32:43;93096.91;;;12.08;100.00
12475;BME280;6302;42.624;23.334;2023-05-24T02:35:12;93102.66;;;12.06;100.00
12475;BME280;6302;42.624;23.334;2023-05-24T02:37:39;93098.16;;;12.03;100.00
12475;BME280;6302;42.624;23.334;2023-05-24T02:40:07;93097.84;;;11.98;100.00
12475;BME280;6302;42.624;23.334;2023-05-24T02:42:34;93105.00;;;12.01;100.00
12475;BME280;6302;42.624;23.334;2023-05-24T02:45:00;93101.22;;;12.02;100.00
12475;BME280;6302;42.624;23.334;2023-05-24T02:47:27;93097.91;;;11.94;100.00
12475;BME280;6302;42.624;23.334;2023-05-24T02:49:54;93100.59;;;11.94;100.00
12475;BME280;6302;42.624;23.334;2023-05-24T02:52:23;93103.28;;;11.91;100.00
12475;BME280;6302;42.624;23.334;2023-05-24T02:54:49;93112.00;;;11.91;100.00
12475;BME280;6302;42.624;23.334;2023-05-24T02:57:16;93111.66;;;11.89;100.00
12475;BME280;6302;42.624;23.334;2023-05-24T02:59:44;93109.34;;;11.91;100.00
12475;BME280;6302;42.624;23.334;2023-05-24T03:02:12;93109.69;;;11.93;100.00
12475;BME280;6302;42.624;23.334;2023-05-24T03:04:39;93114.19;;;11.96;100.00
12475;BME280;6302;42.624;23.334;2023-05-24T03:07:06;93112.22;;;12.00;100.00
12475;BME280;6302;42.624;23.334;2023-05-24T03:09:34;93115.97;;;12.03;100.00
12475;BME280;6302;42.624;23.334;2023-05-24T03:12:00;93106.88;;;12.04;100.00
12475;BME280;6302;42.624;23.334;2023-05-24T03:14:27;93114.28;;;12.12;100.00
12475;BME280;6302;42.624;23.334;2023-05-24T03:16:54;93115.00;;;12.16;100.00
12475;BME280;6302;42.624;23.334;2023-05-24T03:19:21;93117.88;;;12.25;100.00
12475;BME280;6302;42.624;23.334;2023-05-24T03:21:48;93121.97;;;12.30;100.00
12475;BME280;6302;42.624;23.334;2023-05-24T03:24:14;93122.22;;;12.39;100.00
12475;BME280;6302;42.624;23.334;2023-05-24T03:26:43;93126.97;;;12.48;100.00
12475;BME280;6302;42.624;23.334;2023-05-24T03:29:09;93118.88;;;12.55;100.00
12475;BME280;6302;42.624;23.334;2023-05-24T03:31:36;93135.41;;;12.66;100.00
12475;BME280;6302;42.624;23.334;2023-05-24T03:34:03;93142.91;;;12.71;100.00
12475;BME280;6302;42.624;23.334;2023-05-24T03:36:30;93141.19;;;12.80;100.00
12475;BME280;6302;42.624;23.334;2023-05-24T03:38:57;93143.72;;;12.87;100.00
12475;BME280;6302;42.624;23.334;2023-05-24T03:41:24;93143.91;;;12.96;100.00
12475;BME280;6302;42.624;23.334;2023-05-24T03:43:53;93150.22;;;13.06;100.00
12475;BME280;6302;42.624;23.334;2023-05-24T03:46:20;93144.28;;;13.18;100.00
12475;BME280;6302;42.624;23.334;2023-05-24T03:48:47;93143.66;;;13.30;100.00
12475;BME280;6302;42.624;23.334;2023-05-24T03:51:14;93139.53;;;13.45;100.00
12475;BME280;6302;42.624;23.334;2023-05-24T03:53:40;93135.88;;;13.55;100.00
12475;BME280;6302;42.624;23.334;2023-05-24T03:56:07;93131.09;;;13.66;100.00
12475;BME280;6302;42.624;23.334;2023-05-24T03:58:34;93137.00;;;13.74;100.00
12475;BME280;6302;42.624;23.334;2023-05-24T04:01:03;93135.50;;;13.73;100.00
12475;BME280;6302;42.624;23.334;2023-05-24T04:03:30;93135.09;;;13.75;100.00
12475;BME280;6302;42.624;23.334;2023-05-24T04:05:58;93142.91;;;13.82;100.00
12475;BME280;6302;42.624;23.334;2023-05-24T04:08:25;93147.25;;;13.92;100.00
12475;BME280;6302;42.624;23.334;2023-05-24T04:10:51;93144.75;;;14.01;100.00
12475;BME280;6302;42.624;23.334;2023-05-24T04:13:18;93149.84;;;14.11;100.00
12475;BME280;6302;42.624;23.334;2023-05-24T04:15:45;93151.00;;;14.26;100.00
12475;BME280;6302;42.624;23.334;2023-05-24T04:18:13;93152.50;;;14.27;100.00
12475;BME280;6302;42.624;23.334;2023-05-24T04:20:40;93147.88;;;14.31;100.00
12475;BME280;6302;42.624;23.334;2023-05-24T04:23:07;93147.69;;;14.39;100.00
12475;BME280;6302;42.624;23.334;2023-05-24T04:25:34;93144.59;;;14.40;100.00
12475;BME280;6302;42.624;23.334;2023-05-24T04:28:01;93153.09;;;14.35;100.00
12475;BME280;6302;42.624;23.334;2023-05-24T04:30:28;93151.44;;;14.41;100.00
12475;BME280;6302;42.624;23.334;2023-05-24T04:32:54;93156.72;;;14.57;100.00
12475;BME280;6302;42.624;23.334;2023-05-24T04:35:23;93159.56;;;14.66;100.00
12475;BME280;6302;42.624;23.334;2023-05-24T04:37:50;93156.03;;;14.69;100.00
12475;BME280;6302;42.624;23.334;2023-05-24T04:40:17;93165.38;;;14.77;100.00
12475;BME280;6302;42.624;23.334;2023-05-24T04:42:45;93161.47;;;14.94;100.00
12475;BME280;6302;42.624;23.334;2023-05-24T04:45:12;93167.50;;;15.11;100.00
12475;BME280;6302;42.624;23.334;2023-05-24T04:47:40;93176.75;;;15.23;100.00
12475;BME280;6302;42.624;23.334;2023-05-24T04:50:07;93177.19;;;15.34;100.00
12475;BME280;6302;42.624;23.334;2023-05-24T04:52:35;93180.91;;;15.52;100.00
12475;BME280;6302;42.624;23.334;2023-05-24T04:55:02;93186.13;;;15.69;100.00
12475;BME280;6302;42.624;23.334;2023-05-24T04:57:29;93174.19;;;15.86;100.00
12475;BME280;6302;42.624;23.334;2023-05-24T04:59:56;93182.19;;;15.98;100.00
12475;BME280;6302;42.624;23.334;2023-05-24T05:02:23;93184.34;;;16.03;100.00
12475;BME280;6302;42.624;23.334;2023-05-24T05:04:50;93184.88;;;16.11;100.00
12475;BME280;6302;42.624;23.334;2023-05-24T05:07:17;93185.63;;;16.24;100.00
12475;BME280;6302;42.624;23.334;2023-05-24T05:09:47;93187.22;;;16.34;100.00
12475;BME280;6302;42.624;23.334;2023-05-24T05:12:14;93191.34;;;16.48;100.00
12475;BME280;6302;42.624;23.334;2023-05-24T05:14:40;93182.72;;;16.44;100.00
12475;BME280;6302;42.624;23.334;2023-05-24T05:17:07;93183.00;;;16.46;100.00
12475;BME280;6302;42.624;23.334;2023-05-24T05:19:34;93178.09;;;16.57;100.00
12475;BME280;6302;42.624;23.334;2023-05-24T05:22:01;93187.06;;;16.63;100.00
12475;BME280;6302;42.624;23.334;2023-05-24T05:24:28;93180.03;;;16.56;100.00
12475;BME280;6302;42.624;23.334;2023-05-24T05:26:56;93182.47;;;16.51;100.00
12475;BME280;6302;42.624;23.334;2023-05-24T05:29:23;93195.09;;;16.63;100.00
12475;BME280;6302;42.624;23.334;2023-05-24T05:31:49;93197.03;;;16.62;100.00
12475;BME280;6302;42.624;23.334;2023-05-24T05:34:16;93196.59;;;16.64;100.00
12475;BME280;6302;42.624;23.334;2023-05-24T05:36:44;93197.00;;;16.75;100.00
12475;BME280;6302;42.624;23.334;2023-05-24T05:39:11;93204.38;;;16.83;100.00
12475;BME280;6302;42.624;23.334;2023-05-24T05:41:39;93199.94;;;16.89;100.00
12475;BME280;6302;42.624;23.334;2023-05-24T05:44:10;93210.56;;;16.93;100.00
12475;BME280;6302;42.624;23.334;2023-05-24T05:46:37;93205.56;;;17.04;100.00
12475;BME280;6302;42.624;23.334;2023-05-24T05:49:04;93209.06;;;17.14;100.00
12475;BME280;6302;42.624;23.334;2023-05-24T05:51:31;93203.72;;;17.14;100.00
12475;BME280;6302;42.624;23.334;2023-05-24T05:53:58;93208.94;;;17.17;100.00
12475;BME280;6302;42.624;23.334;2023-05-24T05:56:25;93206.13;;;17.21;100.00
12475;BME280;6302;42.624;23.334;2023-05-24T05:58:53;93206.72;;;17.37;100.00
12475;BME280;6302;42.624;23.334;2023-05-24T06:01:21;93213.00;;;17.43;100.00
12475;BME280;6302;42.624;23.334;2023-05-24T06:03:49;93204.34;;;17.39;100.00
12475;BME280;6302;42.624;23.334;2023-05-24T06:06:16;93196.25;;;17.30;100.00
12475;BME280;6302;42.624;23.334;2023-05-24T06:08:43;93213.59;;;17.60;100.00
12475;BME280;6302;42.624;23.334;2023-05-24T06:11:10;93219.69;;;17.61;100.00
12475;BME280;6302;42.624;23.334;2023-05-24T06:13:37;93215.84;;;17.62;100.00
12475;BME280;6302;42.624;23.334;2023-05-24T06:16:04;93227.66;;;17.73;100.00
12475;BME280;6302;42.624;23.334;2023-05-24T06:18:34;93224.03;;;17.89;100.00
12475;BME280;6302;42.624;23.334;2023-05-24T06:21:00;93222.84;;;17.90;100.00
12475;BME280;6302;42.624;23.334;2023-05-24T06:23:28;93227.06;;;18.00;100.00
12475;BME280;6302;42.624;23.334;2023-05-24T06:25:55;93225.13;;;18.00;100.00
12475;BME280;6302;42.624;23.334;2023-05-24T06:28:21;93226.84;;;18.16;100.00
12475;BME280;6302;42.624;23.334;2023-05-24T06:30:48;93227.59;;;18.16;100.00
12475;BME280;6302;42.624;23.334;2023-05-24T06:33:15;93223.75;;;18.27;100.00
12475;BME280;6302;42.624;23.334;2023-05-24T06:35:43;93224.81;;;18.29;100.00
12475;BME280;6302;42.624;23.334;2023-05-24T06:38:10;93217.00;;;18.22;100.00
12475;BME280;6302;42.624;23.334;2023-05-24T06:40:37;93223.31;;;18.28;100.00
12475;BME280;6302;42.624;23.334;2023-05-24T06:43:04;93217.97;;;18.37;100.00
12475;BME280;6302;42.624;23.334;2023-05-24T06:45:31;93222.06;;;18.51;100.00
12475;BME280;6302;42.624;23.334;2023-05-24T06:47:57;93216.41;;;18.49;100.00
12475;BME280;6302;42.624;23.334;2023-05-24T06:50:24;93217.47;;;18.60;100.00
12475;BME280;6302;42.624;23.334;2023-05-24T06:52:53;93216.59;;;18.72;100.00
12475;BME280;6302;42.624;23.334;2023-05-24T06:55:20;93212.03;;;18.91;100.00
12475;BME280;6302;42.624;23.334;2023-05-24T06:57:47;93214.56;;;18.86;100.00
12475;BME280;6302;42.624;23.334;2023-05-24T07:00:14;93199.94;;;18.96;100.00
12475;BME280;6302;42.624;23.334;2023-05-24T07:02:42;93208.47;;;19.03;100.00
12475;BME280;6302;42.624;23.334;2023-05-24T07:05:08;93207.88;;;19.08;100.00
12475;BME280;6302;42.624;23.334;2023-05-24T07:07:37;93208.88;;;19.29;100.00
12475;BME280;6302;42.624;23.334;2023-05-24T07:10:06;93209.53;;;19.42;97.86
12475;BME280;6302;42.624;23.334;2023-05-24T07:12:34;93212.34;;;19.48;94.39
12475;BME280;6302;42.624;23.334;2023-05-24T07:15:01;93215.50;;;19.37;93.67
12475;BME280;6302;42.624;23.334;2023-05-24T07:17:28;93212.19;;;19.51;97.59
12475;BME280;6302;42.624;23.334;2023-05-24T07:19:55;93215.47;;;19.46;93.87
12475;BME280;6302;42.624;23.334;2023-05-24T07:22:22;93205.19;;;19.35;93.81
12475;BME280;6302;42.624;23.334;2023-05-24T07:24:49;93219.50;;;19.60;92.43
12475;BME280;6302;42.624;23.334;2023-05-24T07:27:18;93214.28;;;19.65;95.68
12475;BME280;6302;42.624;23.334;2023-05-24T07:29:44;93215.56;;;19.88;98.66
12475;BME280;6302;42.624;23.334;2023-05-24T07:32:11;93225.56;;;19.96;92.59
12475;BME280;6302;42.624;23.334;2023-05-24T07:34:38;93220.94;;;19.97;95.03
12475;BME280;6302;42.624;23.334;2023-05-24T07:37:05;93221.03;;;20.11;92.05
12475;BME280;6302;42.624;23.334;2023-05-24T07:39:32;93225.19;;;20.22;92.57
12475;BME280;6302;42.624;23.334;2023-05-24T07:41:59;93224.69;;;20.32;92.73
12475;BME280;6302;42.624;23.334;2023-05-24T07:44:27;93219.50;;;20.29;88.86
12475;BME280;6302;42.624;23.334;2023-05-24T07:46:54;93227.81;;;20.40;88.13
12475;BME280;6302;42.624;23.334;2023-05-24T07:49:21;93228.69;;;20.46;88.48
12475;BME280;6302;42.624;23.334;2023-05-24T07:51:48;93224.78;;;20.47;85.20
12475;BME280;6302;42.624;23.334;2023-05-24T07:54:15;93221.88;;;20.59;84.98
12475;BME280;6302;42.624;23.334;2023-05-24T07:56:42;93219.25;;;20.74;81.97
12475;BME280;6302;42.624;23.334;2023-05-24T07:59:09;93213.59;;;20.72;82.77
12475;BME280;6302;42.624;23.334;2023-05-24T08:01:37;93220.34;;;20.91;86.57
12475;BME280;6302;42.624;23.334;2023-05-24T08:04:03;93215.44;;;21.13;88.55
12475;BME280;6302;42.624;23.334;2023-05-24T08:06:32;93220.25;;;21.33;82.47
12475;BME280;6302;42.624;23.334;2023-05-24T08:08:59;93212.34;;;21.29;76.57
12475;BME280;6302;42.624;23.334;2023-05-24T08:11:26;93217.50;;;21.18;71.08
12475;BME280;6302;42.624;23.334;2023-05-24T08:13:53;93218.09;;;21.22;72.21
12475;BME280;6302;42.624;23.334;2023-05-24T08:16:20;93216.22;;;21.28;75.72
12475;BME280;6302;42.624;23.334;2023-05-24T08:18:48;93214.03;;;21.42;73.76
12475;BME280;6302;42.624;23.334;2023-05-24T08:21:14;93208.50;;;21.60;71.57
12475;BME280;6302;42.624;23.334;2023-05-24T08:23:42;93212.22;;;21.77;70.35
12475;BME280;6302;42.624;23.334;2023-05-24T08:26:08;93210.38;;;21.97;68.69
12475;BME280;6302;42.624;23.334;2023-05-24T08:28:35;93206.66;;;21.95;66.50
12475;BME280;6302;42.624;23.334;2023-05-24T08:31:02;93211.59;;;22.11;68.95
12475;BME280;6302;42.624;23.334;2023-05-24T08:33:29;93210.19;;;22.30;66.71
12475;BME280;6302;42.624;23.334;2023-05-24T08:35:57;93216.56;;;22.47;60.82
12475;BME280;6302;42.624;23.334;2023-05-24T08:38:24;93215.31;;;22.28;60.08
12475;BME280;6302;42.624;23.334;2023-05-24T08:40:51;93216.34;;;22.16;61.26
12475;BME280;6302;42.624;23.334;2023-05-24T08:43:18;93220.97;;;22.30;57.78
12475;BME280;6302;42.624;23.334;2023-05-24T08:45:45;93213.16;;;22.32;60.88
12475;BME280;6302;42.624;23.334;2023-05-24T08:48:14;93205.84;;;22.53;60.27
12475;BME280;6302;42.624;23.334;2023-05-24T08:50:43;93206.13;;;22.55;58.51
12475;BME280;6302;42.624;23.334;2023-05-24T08:53:12;93214.03;;;22.58;62.39
12475;BME280;6302;42.624;23.334;2023-05-24T08:55:39;93210.50;;;22.67;59.72
12475;BME280;6302;42.624;23.334;2023-05-24T08:58:08;93204.00;;;22.59;53.59
12475;BME280;6302;42.624;23.334;2023-05-24T09:00:35;93217.41;;;22.53;53.21
12475;BME280;6302;42.624;23.334;2023-05-24T09:03:03;93213.09;;;22.61;54.69
12475;BME280;6302;42.624;23.334;2023-05-24T09:05:32;93204.72;;;22.59;51.17
12475;BME280;6302;42.624;23.334;2023-05-24T09:07:59;93202.88;;;22.65;56.00
12475;BME280;6302;42.624;23.334;2023-05-24T09:10:28;93206.72;;;22.79;53.13
12475;BME280;6302;42.624;23.334;2023-05-24T09:13:01;93206.66;;;22.94;55.99
12475;BME280;6302;42.624;23.334;2023-05-24T09:15:28;93206.63;;;23.08;56.46
12475;BME280;6302;42.624;23.334;2023-05-24T09:17:55;93203.91;;;23.28;58.81
12475;BME280;6302;42.624;23.334;2023-05-24T09:20:22;93204.41;;;23.47;51.28
12475;BME280;6302;42.624;23.334;2023-05-24T09:22:50;93206.00;;;23.59;49.07
12475;BME280;6302;42.624;23.334;2023-05-24T09:25:18;93205.75;;;23.63;50.88
12475;BME280;6302;42.624;23.334;2023-05-24T09:27:50;93200.38;;;23.88;53.18
12475;BME280;6302;42.624;23.334;2023-05-24T09:30:17;93203.13;;;23.94;49.33
12475;BME280;6302;42.624;23.334;2023-05-24T09:32:54;93203.69;;;24.04;46.96
12475;BME280;6302;42.624;23.334;2023-05-24T09:35:22;93200.03;;;24.07;47.26
12475;BME280;6302;42.624;23.334;2023-05-24T09:37:49;93198.28;;;24.04;44.46
12475;BME280;6302;42.624;23.334;2023-05-24T09:40:19;93200.16;;;23.92;45.85
12475;BME280;6302;42.624;23.334;2023-05-24T09:42:46;93198.19;;;23.92;44.85
12475;BME280;6302;42.624;23.334;2023-05-24T09:45:17;93192.97;;;24.09;45.94
12475;BME280;6302;42.624;23.334;2023-05-24T09:47:44;93187.94;;;24.02;43.74
12475;BME280;6302;42.624;23.334;2023-05-24T09:50:12;93195.47;;;23.92;46.05
12475;BME280;6302;42.624;23.334;2023-05-24T09:52:40;93182.22;;;23.94;47.41
12475;BME280;6302;42.624;23.334;2023-05-24T09:55:11;93194.53;;;23.95;46.00
12475;BME280;6302;42.624;23.334;2023-05-24T09:57:38;93190.59;;;23.97;46.23
12475;BME280;6302;42.624;23.334;2023-05-24T10:00:06;93196.34;;;24.04;43.57
12475;BME280;6302;42.624;23.334;2023-05-24T10:02:42;93193.03;;;24.20;43.34
12475;BME280;6302;42.624;23.334;2023-05-24T10:05:10;93188.84;;;24.19;43.57
12475;BME280;6302;42.624;23.334;2023-05-24T10:07:37;93192.28;;;24.20;41.86
12475;BME280;6302;42.624;23.334;2023-05-24T10:10:06;93182.75;;;24.30;41.36
12475;BME280;6302;42.624;23.334;2023-05-24T10:12:33;93184.06;;;24.40;41.06
12475;BME280;6302;42.624;23.334;2023-05-24T10:15:02;93188.03;;;24.44;41.15
12475;BME280;6302;42.624;23.334;2023-05-24T10:17:29;93193.78;;;24.57;40.89
12475;BME280;6302;42.624;23.334;2023-05-24T10:19:57;93182.25;;;24.63;42.78
12475;BME280;6302;42.624;23.334;2023-05-24T10:22:24;93180.66;;;24.45;40.35
12475;BME280;6302;42.624;23.334;2023-05-24T10:24:53;93181.16;;;24.43;40.15
12475;BME280;6302;42.624;23.334;2023-05-24T10:27:27;93181.63;;;24.79;42.80
12475;BME280;6302;42.624;23.334;2023-05-24T10:30:02;93182.19;;;24.94;39.92
12475;BME280;6302;42.624;23.334;2023-05-24T10:32:34;93180.31;;;25.16;40.29
12475;BME280;6302;42.624;23.334;2023-05-24T10:35:05;93175.19;;;25.30;42.62
12475;BME280;6302;42.624;23.334;2023-05-24T10:37:33;93171.84;;;25.57;43.02
12475;BME280;6302;42.624;23.334;2023-05-24T10:39:59;93172.84;;;25.76;39.51
12475;BME280;6302;42.624;23.334;2023-05-24T10:42:29;93167.22;;;25.96;37.93
12475;BME280;6302;42.624;23.334;2023-05-24T10:44:56;93162.03;;;26.09;38.49
12475;BME280;6302;42.624;23.334;2023-05-24T10:47:25;93162.06;;;26.20;37.08
12475;BME280;6302;42.624;23.334;2023-05-24T10:49:55;93164.28;;;26.22;37.76
12475;BME280;6302;42.624;23.334;2023-05-24T10:52:34;93158.56;;;26.03;37.32
12475;BME280;6302;42.624;23.334;2023-05-24T10:55:05;93153.19;;;26.14;36.49
12475;BME280;6302;42.624;23.334;2023-05-24T10:57:33;93147.97;;;26.00;37.71
12475;BME280;6302;42.624;23.334;2023-05-24T11:00:24;93149.94;;;25.94;34.33
12475;BME280;6302;42.624;23.334;2023-05-24T11:02:58;93142.03;;;25.96;34.92
12475;BME280;6302;42.624;23.334;2023-05-24T11:05:32;93144.25;;;25.92;35.63
12475;BME280;6302;42.624;23.334;2023-05-24T11:08:00;93141.03;;;25.93;39.66
12475;BME280;6302;42.624;23.334;2023-05-24T11:10:31;93141.28;;;26.06;36.69
12475;BME280;6302;42.624;23.334;2023-05-24T11:12:59;93139.06;;;25.88;35.68
12475;BME280;6302;42.624;23.334;2023-05-24T11:15:26;93136.13;;;25.97;37.20
12475;BME280;6302;42.624;23.334;2023-05-24T11:18:12;93142.53;;;26.27;37.41
12475;BME280;6302;42.624;23.334;2023-05-24T11:20:41;93140.06;;;26.18;34.28
12475;BME280;6302;42.624;23.334;2023-05-24T11:23:10;93147.22;;;25.99;34.96
12475;BME280;6302;42.624;23.334;2023-05-24T11:25:37;93137.09;;;25.77;36.19
12475;BME280;6302;42.624;23.334;2023-05-24T11:28:06;93138.81;;;25.75;36.62
12475;BME280;6302;42.624;23.334;2023-05-24T11:30:38;93141.56;;;25.97;37.83
12475;BME280;6302;42.624;23.334;2023-05-24T11:33:05;93138.84;;;26.19;37.20
12475;BME280;6302;42.624;23.334;2023-05-24T11:35:38;93138.09;;;26.13;36.02
12475;BME280;6302;42.624;23.334;2023-05-24T11:38:10;93141.81;;;26.21;36.49
12475;BME280;6302;42.624;23.334;2023-05-24T11:40:40;93135.63;;;26.26;37.27
12475;BME280;6302;42.624;23.334;2023-05-24T11:43:10;93140.28;;;26.42;36.43
12475;BME280;6302;42.624;23.334;2023-05-24T11:45:40;93115.88;;;26.20;35.95
12475;BME280;6302;42.624;23.334;2023-05-24T11:48:07;93123.03;;;26.29;39.43
12475;BME280;6302;42.624;23.334;2023-05-24T11:50:37;93123.00;;;26.45;38.30
12475;BME280;6302;42.624;23.334;2023-05-24T11:53:05;93116.06;;;26.50;38.53
12475;BME280;6302;42.624;23.334;2023-05-24T11:55:33;93107.41;;;26.63;36.13
12475;BME280;6302;42.624;23.334;2023-05-24T11:58:04;93116.28;;;26.63;35.92
12475;BME280;6302;42.624;23.334;2023-05-24T12:00:32;93115.41;;;26.22;35.26
12475;BME280;6302;42.624;23.334;2023-05-24T12:02:59;93111.44;;;26.28;37.87
12475;BME280;6302;42.624;23.334;2023-05-24T12:05:31;93113.88;;;26.48;35.73
12475;BME280;6302;42.624;23.334;2023-05-24T12:08:02;93116.34;;;26.46;34.84
12475;BME280;6302;42.624;23.334;2023-05-24T12:10:32;93111.16;;;26.48;35.44
12475;BME280;6302;42.624;23.334;2023-05-24T12:12:59;93110.13;;;26.63;34.79
12475;BME280;6302;42.624;23.334;2023-05-24T12:15:26;93063.97;;;26.52;34.10
12475;BME280;6302;42.624;23.334;2023-05-24T12:17:53;93095.97;;;26.86;33.30
12475;BME280;6302;42.624;23.334;2023-05-24T12:20:20;93095.19;;;26.97;34.33
12475;BME280;6302;42.624;23.334;2023-05-24T12:22:47;93096.00;;;26.75;34.51
12475;BME280;6302;42.624;23.334;2023-05-24T12:25:16;93097.53;;;26.54;37.93
12475;BME280;6302;42.624;23.334;2023-05-24T12:27:46;93098.25;;;26.66;35.94
12475;BME280;6302;42.624;23.334;2023-05-24T12:30:14;93082.66;;;26.83;35.40
12475;BME280;6302;42.624;23.334;2023-05-24T12:32:46;93090.28;;;26.90;37.39
12475;BME280;6302;42.624;23.334;2023-05-24T12:35:13;93085.81;;;26.98;37.91
12475;BME280;6302;42.624;23.334;2023-05-24T12:37:39;93078.22;;;27.26;35.83
12475;BME280;6302;42.624;23.334;2023-05-24T12:40:14;93070.47;;;27.47;34.39
12475;BME280;6302;42.624;23.334;2023-05-24T12:42:42;93076.97;;;27.68;34.46
12475;BME280;6302;42.624;23.334;2023-05-24T12:45:14;93071.25;;;27.77;33.82
12475;BME280;6302;42.624;23.334;2023-05-24T12:47:47;93074.44;;;27.75;34.00
12475;BME280;6302;42.624;23.334;2023-05-24T12:50:14;93076.63;;;27.83;33.84
12475;BME280;6302;42.624;23.334;2023-05-24T12:52:42;93068.19;;;27.86;33.99
12475;BME280;6302;42.624;23.334;2023-05-24T12:55:11;93074.38;;;27.87;35.27
12475;BME280;6302;42.624;23.334;2023-05-24T12:57:38;93065.88;;;27.96;34.13
12475;BME280;6302;42.624;23.334;2023-05-24T13:00:07;93061.66;;;28.00;32.80